sensor_id;sensor_type;location;lat;lon;timestamp;P1;durP1;ratioP1;P2;durP2;ratioP2
52948;SDS011;38812;50.942;3.644;2023-04-15T00:02:24;3.95;;;2.90;;
52948;SDS011;38812;50.942;3.644;2023-04-15T00:04:49;6.82;;;3.10;;
52948;SDS011;38812;50.942;3.644;2023-04-15T00:07:15;5.35;;;3.40;;
52948;SDS011;38812;50.942;3.644;2023-04-15T00:09:40;3.58;;;2.72;;
52948;SDS011;38812;50.942;3.644;2023-04-15T00:12:06;4.53;;;3.03;;
52948;SDS011;38812;50.942;3.644;2023-04-15T00:14:33;4.53;;;2.85;;
52948;SDS011;38812;50.942;3.644;2023-04-15T00:17:00;8.18;;;3.30;;
52948;SDS011;38812;50.942;3.644;2023-04-15T00:19:26;5.80;;;3.28;;
52948;SDS011;38812;50.942;3.644;2023-04-15T00:21:51;4.70;;;3.17;;
52948;SDS011;38812;50.942;3.644;2023-04-15T00:24:17;4.20;;;2.75;;
52948;SDS011;38812;50.942;3.644;2023-04-15T00:26:42;7.03;;;3.83;;
52948;SDS011;38812;50.942;3.644;2023-04-15T00:29:08;8.45;;;3.55;;
52948;SDS011;38812;50.942;3.644;2023-04-15T00:31:33;6.38;;;3.75;;
52948;SDS011;38812;50.942;3.644;2023-04-15T00:33:58;4.78;;;3.10;;
52948;SDS011;38812;50.942;3.644;2023-04-15T00:36:24;5.22;;;3.65;;
52948;SDS011;38812;50.942;3.644;2023-04-15T00:38:50;4.32;;;3.53;;
52948;SDS011;38812;50.942;3.644;2023-04-15T00:41:15;5.35;;;4.07;;
52948;SDS011;38812;50.942;3.644;2023-04-15T00:43:43;5.55;;;4.20;;
52948;SDS011;38812;50.942;3.644;2023-04-15T00:46:08;9.27;;;4.10;;
52948;SDS011;38812;50.942;3.644;2023-04-15T00:48:36;5.90;;;4.00;;
52948;SDS011;38812;50.942;3.644;2023-04-15T00:51:02;5.43;;;4.13;;
52948;SDS011;38812;50.942;3.644;2023-04-15T00:53:28;6.75;;;4.63;;
52948;SDS011;38812;50.942;3.644;2023-04-15T00:55:53;9.07;;;5.80;;
52948;SDS011;38812;50.942;3.644;2023-04-15T00:58:20;8.63;;;4.30;;
52948;SDS011;38812;50.942;3.644;2023-04-15T01:00:45;5.85;;;4.45;;
52948;SDS011;38812;50.942;3.644;2023-04-15T01:03:11;8.18;;;4.88;;
52948;SDS011;38812;50.942;3.644;2023-04-15T01:05:37;6.93;;;4.20;;
52948;SDS011;38812;50.942;3.644;2023-04-15T01:08:03;4.82;;;3.97;;
52948;SDS011;38812;50.942;3.644;2023-04-15T01:10:29;5.70;;;3.75;;
52948;SDS011;38812;50.942;3.644;2023-04-15T01:12:55;7.82;;;3.40;;
52948;SDS011;38812;50.942;3.644;2023-04-15T01:15:21;5.82;;;3.85;;
52948;SDS011;38812;50.942;3.644;2023-04-15T01:17:47;5.07;;;4.10;;
52948;SDS011;38812;50.942;3.644;2023-04-15T01:20:12;5.93;;;3.67;;
52948;SDS011;38812;50.942;3.644;2023-04-15T01:22:39;5.28;;;3.60;;
52948;SDS011;38812;50.942;3.644;2023-04-15T01:25:07;4.32;;;3.50;;
52948;SDS011;38812;50.942;3.644;2023-04-15T01:27:35;5.63;;;3.85;;
52948;SDS011;38812;50.942;3.644;2023-04-15T01:30:04;4.90;;;3.42;;
52948;SDS011;38812;50.942;3.644;2023-04-15T01:32:30;4.70;;;3.03;;
52948;SDS011;38812;50.942;3.644;2023-04-15T01:34:56;6.15;;;3.85;;
52948;SDS011;38812;50.942;3.644;2023-04-15T01:37:21;6.53;;;3.80;;
52948;SDS011;38812;50.942;3.644;2023-04-15T01:39:47;6.43;;;4.55;;
52948;SDS011;38812;50.942;3.644;2023-04-15T01:42:12;6.80;;;4.07;;
52948;SDS011;38812;50.942;3.644;2023-04-15T01:44:37;5.85;;;3.75;;
52948;SDS011;38812;50.942;3.644;2023-04-15T01:47:03;6.60;;;4.03;;
52948;SDS011;38812;50.942;3.644;2023-04-15T01:49:29;6.43;;;4.18;;
52948;SDS011;38812;50.942;3.644;2023-04-15T01:51:55;4.55;;;3.78;;
52948;SDS011;38812;50.942;3.644;2023-04-15T01:54:20;6.22;;;4.18;;
52948;SDS011;38812;50.942;3.644;2023-04-15T01:56:45;7.68;;;4.35;;
52948;SDS011;38812;50.942;3.644;2023-04-15T01:59:11;5.20;;;3.92;;
52948;SDS011;38812;50.942;3.644;2023-04-15T02:01:36;8.23;;;3.70;;
52948;SDS011;38812;50.942;3.644;2023-04-15T02:04:02;4.40;;;3.58;;
52948;SDS011;38812;50.942;3.644;2023-04-15T02:06:27;7.90;;;3.55;;
52948;SDS011;38812;50.942;3.644;2023-04-15T02:08:52;4.57;;;3.90;;
52948;SDS011;38812;50.942;3.644;2023-04-15T02:11:18;8.02;;;4.05;;
52948;SDS011;38812;50.942;3.644;2023-04-15T02:13:43;6.00;;;3.83;;
52948;SDS011;38812;50.942;3.644;2023-04-15T02:16:18;4.70;;;3.65;;
52948;SDS011;38812;50.942;3.644;2023-04-15T02:18:44;5.85;;;3.85;;
52948;SDS011;38812;50.942;3.644;2023-04-15T02:21:11;5.00;;;4.07;;
52948;SDS011;38812;50.942;3.644;2023-04-15T02:23:36;4.43;;;3.83;;
52948;SDS011;38812;50.942;3.644;2023-04-15T02:26:02;7.53;;;4.55;;
52948;SDS011;38812;50.942;3.644;2023-04-15T02:28:27;6.53;;;4.03;;
52948;SDS011;38812;50.942;3.644;2023-04-15T02:30:53;6.90;;;4.18;;
52948;SDS011;38812;50.942;3.644;2023-04-15T02:33:21;6.30;;;4.13;;
52948;SDS011;38812;50.942;3.644;2023-04-15T02:35:46;5.43;;;4.18;;
52948;SDS011;38812;50.942;3.644;2023-04-15T02:38:12;4.93;;;4.13;;
52948;SDS011;38812;50.942;3.644;2023-04-15T02:40:38;5.30;;;4.10;;
52948;SDS011;38812;50.942;3.644;2023-04-15T02:43:04;9.60;;;4.55;;
52948;SDS011;38812;50.942;3.644;2023-04-15T02:45:31;5.47;;;4.10;;
52948;SDS011;38812;50.942;3.644;2023-04-15T02:47:57;4.90;;;3.83;;
52948;SDS011;38812;50.942;3.644;2023-04-15T02:50:22;4.63;;;3.65;;
52948;SDS011;38812;50.942;3.644;2023-04-15T02:52:49;5.03;;;3.67;;
52948;SDS011;38812;50.942;3.644;2023-04-15T02:55:14;6.18;;;4.32;;
52948;SDS011;38812;50.942;3.644;2023-04-15T02:57:41;5.72;;;4.38;;
52948;SDS011;38812;50.942;3.644;2023-04-15T03:00:08;5.88;;;4.47;;
52948;SDS011;38812;50.942;3.644;2023-04-15T03:02:36;7.68;;;4.57;;
52948;SDS011;38812;50.942;3.644;2023-04-15T03:05:02;4.95;;;4.03;;
52948;SDS011;38812;50.942;3.644;2023-04-15T03:07:28;4.93;;;4.53;;
52948;SDS011;38812;50.942;3.644;2023-04-15T03:09:54;6.57;;;4.22;;
52948;SDS011;38812;50.942;3.644;2023-04-15T03:12:20;7.15;;;4.90;;
52948;SDS011;38812;50.942;3.644;2023-04-15T03:14:45;8.65;;;4.78;;
52948;SDS011;38812;50.942;3.644;2023-04-15T03:17:10;7.13;;;4.35;;
52948;SDS011;38812;50.942;3.644;2023-04-15T03:19:36;5.22;;;4.20;;
52948;SDS011;38812;50.942;3.644;2023-04-15T03:22:01;5.50;;;4.15;;
52948;SDS011;38812;50.942;3.644;2023-04-15T03:24:27;7.38;;;4.95;;
52948;SDS011;38812;50.942;3.644;2023-04-15T03:26:53;6.07;;;4.68;;
52948;SDS011;38812;50.942;3.644;2023-04-15T03:29:19;7.15;;;5.72;;
52948;SDS011;38812;50.942;3.644;2023-04-15T03:31:44;7.35;;;5.43;;
52948;SDS011;38812;50.942;3.644;2023-04-15T03:34:10;7.85;;;5.72;;
52948;SDS011;38812;50.942;3.644;2023-04-15T03:36:35;9.82;;;7.05;;
52948;SDS011;38812;50.942;3.644;2023-04-15T03:39:01;12.43;;;7.03;;
52948;SDS011;38812;50.942;3.644;2023-04-15T03:41:27;11.48;;;7.28;;
52948;SDS011;38812;50.942;3.644;2023-04-15T03:43:52;8.68;;;7.03;;
52948;SDS011;38812;50.942;3.644;2023-04-15T03:46:18;9.93;;;7.57;;
52948;SDS011;38812;50.942;3.644;2023-04-15T03:48:43;12.55;;;7.90;;
52948;SDS011;38812;50.942;3.644;2023-04-15T03:51:09;16.05;;;8.77;;
52948;SDS011;38812;50.942;3.644;2023-04-15T03:53:34;11.40;;;8.85;;
52948;SDS011;38812;50.942;3.644;2023-04-15T03:56:00;11.70;;;9.07;;
52948;SDS011;38812;50.942;3.644;2023-04-15T03:58:26;12.68;;;8.77;;
52948;SDS011;38812;50.942;3.644;2023-04-15T04:00:51;10.02;;;8.85;;
52948;SDS011;38812;50.942;3.644;2023-04-15T04:03:17;14.60;;;10.32;;
52948;SDS011;38812;50.942;3.644;2023-04-15T04:05:42;17.88;;;10.27;;
52948;SDS011;38812;50.942;3.644;2023-04-15T04:08:08;13.80;;;9.93;;
52948;SDS011;38812;50.942;3.644;2023-04-15T04:10:35;16.80;;;11.65;;
52948;SDS011;38812;50.942;3.644;2023-04-15T04:13:00;12.02;;;9.48;;
52948;SDS011;38812;50.942;3.644;2023-04-15T04:15:26;13.32;;;10.48;;
52948;SDS011;38812;50.942;3.644;2023-04-15T04:17:51;17.33;;;10.65;;
52948;SDS011;38812;50.942;3.644;2023-04-15T04:20:17;12.77;;;10.40;;
52948;SDS011;38812;50.942;3.644;2023-04-15T04:22:42;13.73;;;10.23;;
52948;SDS011;38812;50.942;3.644;2023-04-15T04:25:08;15.43;;;10.95;;
52948;SDS011;38812;50.942;3.644;2023-04-15T04:27:35;18.05;;;11.93;;
52948;SDS011;38812;50.942;3.644;2023-04-15T04:30:00;14.93;;;11.82;;
52948;SDS011;38812;50.942;3.644;2023-04-15T04:32:26;17.35;;;12.85;;
52948;SDS011;38812;50.942;3.644;2023-04-15T04:34:51;13.82;;;11.95;;
52948;SDS011;38812;50.942;3.644;2023-04-15T04:37:17;21.38;;;13.55;;
52948;SDS011;38812;50.942;3.644;2023-04-15T04:39:42;19.20;;;13.88;;
52948;SDS011;38812;50.942;3.644;2023-04-15T04:42:07;16.77;;;13.30;;
52948;SDS011;38812;50.942;3.644;2023-04-15T04:44:33;19.40;;;14.18;;
52948;SDS011;38812;50.942;3.644;2023-04-15T04:46:58;22.45;;;15.52;;
52948;SDS011;38812;50.942;3.644;2023-04-15T04:49:24;21.30;;;14.77;;
52948;SDS011;38812;50.942;3.644;2023-04-15T04:51:49;22.25;;;14.35;;
52948;SDS011;38812;50.942;3.644;2023-04-15T04:54:15;26.45;;;15.50;;
52948;SDS011;38812;50.942;3.644;2023-04-15T04:56:41;18.40;;;14.50;;
52948;SDS011;38812;50.942;3.644;2023-04-15T04:59:06;25.88;;;16.17;;
52948;SDS011;38812;50.942;3.644;2023-04-15T05:01:31;24.92;;;15.18;;
52948;SDS011;38812;50.942;3.644;2023-04-15T05:03:57;30.02;;;15.07;;
52948;SDS011;38812;50.942;3.644;2023-04-15T05:06:23;23.95;;;15.65;;
52948;SDS011;38812;50.942;3.644;2023-04-15T05:08:48;20.88;;;14.45;;
52948;SDS011;38812;50.942;3.644;2023-04-15T05:11:14;22.02;;;14.27;;
52948;SDS011;38812;50.942;3.644;2023-04-15T05:13:40;21.13;;;14.02;;
52948;SDS011;38812;50.942;3.644;2023-04-15T05:16:05;19.10;;;15.02;;
52948;SDS011;38812;50.942;3.644;2023-04-15T05:18:31;23.40;;;14.00;;
52948;SDS011;38812;50.942;3.644;2023-04-15T05:20:57;23.15;;;14.32;;
52948;SDS011;38812;50.942;3.644;2023-04-15T05:23:23;23.60;;;13.63;;
52948;SDS011;38812;50.942;3.644;2023-04-15T05:25:48;20.13;;;13.10;;
52948;SDS011;38812;50.942;3.644;2023-04-15T05:28:13;18.35;;;13.25;;
52948;SDS011;38812;50.942;3.644;2023-04-15T05:30:39;19.13;;;12.52;;
52948;SDS011;38812;50.942;3.644;2023-04-15T05:33:05;19.70;;;11.90;;
52948;SDS011;38812;50.942;3.644;2023-04-15T05:35:30;21.02;;;11.82;;
52948;SDS011;38812;50.942;3.644;2023-04-15T05:37:56;17.08;;;11.60;;
52948;SDS011;38812;50.942;3.644;2023-04-15T05:40:21;18.10;;;11.48;;
52948;SDS011;38812;50.942;3.644;2023-04-15T05:42:47;24.25;;;12.27;;
52948;SDS011;38812;50.942;3.644;2023-04-15T05:45:13;18.60;;;11.25;;
52948;SDS011;38812;50.942;3.644;2023-04-15T05:47:38;16.27;;;10.88;;
52948;SDS011;38812;50.942;3.644;2023-04-15T05:50:03;16.98;;;11.05;;
52948;SDS011;38812;50.942;3.644;2023-04-15T05:52:30;15.10;;;9.77;;
52948;SDS011;38812;50.942;3.644;2023-04-15T05:54:56;21.35;;;10.88;;
52948;SDS011;38812;50.942;3.644;2023-04-15T05:57:21;27.75;;;11.65;;
52948;SDS011;38812;50.942;3.644;2023-04-15T05:59:47;16.33;;;11.10;;
52948;SDS011;38812;50.942;3.644;2023-04-15T06:02:13;17.88;;;11.52;;
52948;SDS011;38812;50.942;3.644;2023-04-15T06:04:39;13.23;;;9.35;;
52948;SDS011;38812;50.942;3.644;2023-04-15T06:07:04;18.58;;;9.30;;
52948;SDS011;38812;50.942;3.644;2023-04-15T06:09:30;13.02;;;9.20;;
52948;SDS011;38812;50.942;3.644;2023-04-15T06:11:55;13.88;;;8.90;;
52948;SDS011;38812;50.942;3.644;2023-04-15T06:14:23;13.20;;;7.85;;
52948;SDS011;38812;50.942;3.644;2023-04-15T06:16:48;14.13;;;7.07;;
52948;SDS011;38812;50.942;3.644;2023-04-15T06:19:14;16.88;;;7.55;;
52948;SDS011;38812;50.942;3.644;2023-04-15T06:21:39;10.57;;;6.90;;
52948;SDS011;38812;50.942;3.644;2023-04-15T06:24:05;10.35;;;6.75;;
52948;SDS011;38812;50.942;3.644;2023-04-15T06:26:30;12.18;;;6.13;;
52948;SDS011;38812;50.942;3.644;2023-04-15T06:28:56;13.90;;;6.57;;
52948;SDS011;38812;50.942;3.644;2023-04-15T06:31:21;16.13;;;7.68;;
52948;SDS011;38812;50.942;3.644;2023-04-15T06:33:47;15.38;;;9.23;;
52948;SDS011;38812;50.942;3.644;2023-04-15T06:36:12;14.02;;;8.20;;
52948;SDS011;38812;50.942;3.644;2023-04-15T06:38:37;15.65;;;9.30;;
52948;SDS011;38812;50.942;3.644;2023-04-15T06:41:03;15.35;;;9.40;;
52948;SDS011;38812;50.942;3.644;2023-04-15T06:43:29;13.43;;;8.82;;
52948;SDS011;38812;50.942;3.644;2023-04-15T06:45:54;18.77;;;10.05;;
52948;SDS011;38812;50.942;3.644;2023-04-15T06:48:20;14.45;;;9.10;;
52948;SDS011;38812;50.942;3.644;2023-04-15T06:50:46;19.42;;;9.35;;
52948;SDS011;38812;50.942;3.644;2023-04-15T06:53:12;21.05;;;10.40;;
52948;SDS011;38812;50.942;3.644;2023-04-15T06:55:38;14.70;;;9.25;;
52948;SDS011;38812;50.942;3.644;2023-04-15T06:58:04;13.55;;;8.40;;
52948;SDS011;38812;50.942;3.644;2023-04-15T07:00:29;18.90;;;9.00;;
52948;SDS011;38812;50.942;3.644;2023-04-15T07:02:55;14.05;;;9.23;;
52948;SDS011;38812;50.942;3.644;2023-04-15T07:05:21;19.02;;;9.57;;
52948;SDS011;38812;50.942;3.644;2023-04-15T07:07:47;14.85;;;8.85;;
52948;SDS011;38812;50.942;3.644;2023-04-15T07:10:13;14.93;;;8.95;;
52948;SDS011;38812;50.942;3.644;2023-04-15T07:12:39;20.02;;;8.52;;
52948;SDS011;38812;50.942;3.644;2023-04-15T07:15:05;17.58;;;8.82;;
52948;SDS011;38812;50.942;3.644;2023-04-15T07:17:31;20.55;;;10.63;;
52948;SDS011;38812;50.942;3.644;2023-04-15T07:19:57;23.15;;;12.60;;
52948;SDS011;38812;50.942;3.644;2023-04-15T07:22:22;17.38;;;10.20;;
52948;SDS011;38812;50.942;3.644;2023-04-15T07:24:48;18.85;;;9.25;;
52948;SDS011;38812;50.942;3.644;2023-04-15T07:27:13;15.95;;;9.15;;
52948;SDS011;38812;50.942;3.644;2023-04-15T07:29:39;21.23;;;9.32;;
52948;SDS011;38812;50.942;3.644;2023-04-15T07:32:04;17.80;;;9.15;;
52948;SDS011;38812;50.942;3.644;2023-04-15T07:34:29;21.60;;;8.63;;
52948;SDS011;38812;50.942;3.644;2023-04-15T07:36:55;19.75;;;8.13;;
52948;SDS011;38812;50.942;3.644;2023-04-15T07:39:21;19.92;;;8.82;;
52948;SDS011;38812;50.942;3.644;2023-04-15T07:41:46;19.02;;;8.23;;
52948;SDS011;38812;50.942;3.644;2023-04-15T07:44:13;16.30;;;8.35;;
52948;SDS011;38812;50.942;3.644;2023-04-15T07:46:38;21.10;;;8.35;;
52948;SDS011;38812;50.942;3.644;2023-04-15T07:49:04;22.25;;;8.73;;
52948;SDS011;38812;50.942;3.644;2023-04-15T07:51:29;19.92;;;9.10;;
52948;SDS011;38812;50.942;3.644;2023-04-15T07:53:56;20.35;;;10.65;;
52948;SDS011;38812;50.942;3.644;2023-04-15T07:56:21;21.73;;;11.32;;
52948;SDS011;38812;50.942;3.644;2023-04-15T07:58:47;18.63;;;9.18;;
52948;SDS011;38812;50.942;3.644;2023-04-15T08:01:12;19.40;;;9.52;;
52948;SDS011;38812;50.942;3.644;2023-04-15T08:03:38;15.52;;;8.43;;
52948;SDS011;38812;50.942;3.644;2023-04-15T08:06:03;15.25;;;8.50;;
52948;SDS011;38812;50.942;3.644;2023-04-15T08:08:29;22.70;;;9.45;;
52948;SDS011;38812;50.942;3.644;2023-04-15T08:10:54;19.73;;;10.00;;
52948;SDS011;38812;50.942;3.644;2023-04-15T08:13:19;14.18;;;7.82;;
52948;SDS011;38812;50.942;3.644;2023-04-15T08:15:45;17.05;;;7.70;;
52948;SDS011;38812;50.942;3.644;2023-04-15T08:18:11;13.82;;;7.78;;
52948;SDS011;38812;50.942;3.644;2023-04-15T08:20:36;16.92;;;8.23;;
52948;SDS011;38812;50.942;3.644;2023-04-15T08:23:02;18.58;;;7.93;;
52948;SDS011;38812;50.942;3.644;2023-04-15T08:25:28;18.02;;;7.97;;
52948;SDS011;38812;50.942;3.644;2023-04-15T08:27:54;15.70;;;9.05;;
52948;SDS011;38812;50.942;3.644;2023-04-15T08:30:24;20.58;;;9.90;;
52948;SDS011;38812;50.942;3.644;2023-04-15T08:32:52;43.22;;;17.27;;
52948;SDS011;38812;50.942;3.644;2023-04-15T08:35:17;56.63;;;23.05;;
52948;SDS011;38812;50.942;3.644;2023-04-15T08:37:43;56.75;;;25.67;;
52948;SDS011;38812;50.942;3.644;2023-04-15T08:40:09;54.63;;;21.70;;
52948;SDS011;38812;50.942;3.644;2023-04-15T08:42:43;30.20;;;13.60;;
52948;SDS011;38812;50.942;3.644;2023-04-15T08:45:14;31.30;;;13.23;;
52948;SDS011;38812;50.942;3.644;2023-04-15T08:47:40;30.85;;;12.00;;
52948;SDS011;38812;50.942;3.644;2023-04-15T08:50:08;19.50;;;11.85;;
52948;SDS011;38812;50.942;3.644;2023-04-15T08:52:34;16.42;;;7.63;;
52948;SDS011;38812;50.942;3.644;2023-04-15T08:55:00;21.98;;;10.45;;
52948;SDS011;38812;50.942;3.644;2023-04-15T08:57:27;23.63;;;10.52;;
52948;SDS011;38812;50.942;3.644;2023-04-15T08:59:54;18.58;;;8.55;;
52948;SDS011;38812;50.942;3.644;2023-04-15T09:02:21;13.40;;;8.77;;
52948;SDS011;38812;50.942;3.644;2023-04-15T09:04:51;16.77;;;9.52;;
52948;SDS011;38812;50.942;3.644;2023-04-15T09:07:17;15.52;;;10.13;;
52948;SDS011;38812;50.942;3.644;2023-04-15T09:09:42;19.73;;;10.50;;
52948;SDS011;38812;50.942;3.644;2023-04-15T09:12:08;25.63;;;12.38;;
52948;SDS011;38812;50.942;3.644;2023-04-15T09:14:34;29.23;;;12.98;;
52948;SDS011;38812;50.942;3.644;2023-04-15T09:17:01;28.98;;;13.82;;
52948;SDS011;38812;50.942;3.644;2023-04-15T09:19:28;18.55;;;11.27;;
52948;SDS011;38812;50.942;3.644;2023-04-15T09:21:54;23.02;;;12.13;;
52948;SDS011;38812;50.942;3.644;2023-04-15T09:24:22;21.15;;;11.80;;
52948;SDS011;38812;50.942;3.644;2023-04-15T09:26:51;25.58;;;12.07;;
52948;SDS011;38812;50.942;3.644;2023-04-15T09:29:18;27.50;;;13.85;;
52948;SDS011;38812;50.942;3.644;2023-04-15T09:31:44;26.50;;;14.45;;
52948;SDS011;38812;50.942;3.644;2023-04-15T09:34:09;27.50;;;14.55;;
52948;SDS011;38812;50.942;3.644;2023-04-15T09:39:14;26.30;;;13.60;;
52948;SDS011;38812;50.942;3.644;2023-04-15T09:41:40;27.55;;;15.52;;
52948;SDS011;38812;50.942;3.644;2023-04-15T09:44:05;32.35;;;14.40;;
52948;SDS011;38812;50.942;3.644;2023-04-15T09:46:41;26.95;;;12.70;;
52948;SDS011;38812;50.942;3.644;2023-04-15T09:49:08;22.65;;;11.40;;
52948;SDS011;38812;50.942;3.644;2023-04-15T09:51:34;20.48;;;11.25;;
52948;SDS011;38812;50.942;3.644;2023-04-15T09:54:00;20.73;;;11.13;;
52948;SDS011;38812;50.942;3.644;2023-04-15T09:56:31;22.08;;;11.35;;
52948;SDS011;38812;50.942;3.644;2023-04-15T09:59:00;29.35;;;11.48;;
52948;SDS011;38812;50.942;3.644;2023-04-15T10:01:25;23.25;;;12.32;;
52948;SDS011;38812;50.942;3.644;2023-04-15T10:03:51;24.52;;;12.30;;
52948;SDS011;38812;50.942;3.644;2023-04-15T10:06:19;24.33;;;12.02;;
52948;SDS011;38812;50.942;3.644;2023-04-15T10:08:47;17.80;;;10.70;;
52948;SDS011;38812;50.942;3.644;2023-04-15T10:11:13;16.67;;;10.05;;
52948;SDS011;38812;50.942;3.644;2023-04-15T10:13:39;25.08;;;12.70;;
52948;SDS011;38812;50.942;3.644;2023-04-15T10:16:07;32.17;;;15.98;;
52948;SDS011;38812;50.942;3.644;2023-04-15T10:18:37;26.80;;;15.65;;
52948;SDS011;38812;50.942;3.644;2023-04-15T10:21:06;30.63;;;16.83;;
52948;SDS011;38812;50.942;3.644;2023-04-15T10:23:33;24.30;;;12.88;;
52948;SDS011;38812;50.942;3.644;2023-04-15T10:25:58;26.38;;;13.55;;
52948;SDS011;38812;50.942;3.644;2023-04-15T10:28:24;29.67;;;18.38;;
52948;SDS011;38812;50.942;3.644;2023-04-15T10:30:51;27.40;;;14.45;;
52948;SDS011;38812;50.942;3.644;2023-04-15T10:33:18;29.83;;;13.60;;
52948;SDS011;38812;50.942;3.644;2023-04-15T10:35:45;27.95;;;14.20;;
52948;SDS011;38812;50.942;3.644;2023-04-15T10:43:48;29.45;;;14.95;;
52948;SDS011;38812;50.942;3.644;2023-04-15T10:46:22;26.23;;;15.93;;
52948;SDS011;38812;50.942;3.644;2023-04-15T10:48:50;27.77;;;14.13;;
52948;SDS011;38812;50.942;3.644;2023-04-15T10:51:25;22.17;;;13.05;;
52948;SDS011;38812;50.942;3.644;2023-04-15T10:53:57;20.92;;;11.55;;
52948;SDS011;38812;50.942;3.644;2023-04-15T10:56:24;17.88;;;11.25;;
52948;SDS011;38812;50.942;3.644;2023-04-15T10:58:50;15.77;;;9.65;;
52948;SDS011;38812;50.942;3.644;2023-04-15T11:01:15;16.30;;;9.05;;
52948;SDS011;38812;50.942;3.644;2023-04-15T11:03:45;14.13;;;8.07;;
52948;SDS011;38812;50.942;3.644;2023-04-15T11:06:10;16.52;;;7.90;;
52948;SDS011;38812;50.942;3.644;2023-04-15T11:09:11;10.90;;;7.47;;
52948;SDS011;38812;50.942;3.644;2023-04-15T11:14:35;6.85;;;5.05;;
52948;SDS011;38812;50.942;3.644;2023-04-15T11:17:04;7.55;;;4.35;;
52948;SDS011;38812;50.942;3.644;2023-04-15T11:19:36;9.30;;;5.78;;
52948;SDS011;38812;50.942;3.644;2023-04-15T11:22:06;10.13;;;6.43;;
52948;SDS011;38812;50.942;3.644;2023-04-15T11:24:35;7.78;;;6.38;;
52948;SDS011;38812;50.942;3.644;2023-04-15T11:27:19;7.65;;;4.85;;
52948;SDS011;38812;50.942;3.644;2023-04-15T11:29:47;6.68;;;3.55;;
52948;SDS011;38812;50.942;3.644;2023-04-15T11:32:13;6.70;;;3.55;;
52948;SDS011;38812;50.942;3.644;2023-04-15T11:34:38;5.32;;;3.58;;
52948;SDS011;38812;50.942;3.644;2023-04-15T11:37:06;4.85;;;3.47;;
52948;SDS011;38812;50.942;3.644;2023-04-15T11:39:32;6.53;;;3.80;;
52948;SDS011;38812;50.942;3.644;2023-04-15T11:41:57;6.55;;;3.30;;
52948;SDS011;38812;50.942;3.644;2023-04-15T11:44:23;6.00;;;2.70;;
52948;SDS011;38812;50.942;3.644;2023-04-15T11:46:48;5.97;;;2.88;;
52948;SDS011;38812;50.942;3.644;2023-04-15T11:49:29;4.13;;;2.67;;
52948;SDS011;38812;50.942;3.644;2023-04-15T11:51:55;5.90;;;2.30;;
52948;SDS011;38812;50.942;3.644;2023-04-15T11:54:21;4.68;;;2.58;;
52948;SDS011;38812;50.942;3.644;2023-04-15T11:56:50;4.80;;;2.70;;
52948;SDS011;38812;50.942;3.644;2023-04-15T11:59:16;5.47;;;2.80;;
52948;SDS011;38812;50.942;3.644;2023-04-15T12:01:41;8.35;;;3.20;;
52948;SDS011;38812;50.942;3.644;2023-04-15T12:04:15;6.18;;;3.05;;
52948;SDS011;38812;50.942;3.644;2023-04-15T12:06:43;4.45;;;2.70;;
52948;SDS011;38812;50.942;3.644;2023-04-15T12:09:10;4.53;;;2.00;;
52948;SDS011;38812;50.942;3.644;2023-04-15T12:11:47;2.88;;;1.52;;
52948;SDS011;38812;50.942;3.644;2023-04-15T12:14:28;2.78;;;1.88;;
52948;SDS011;38812;50.942;3.644;2023-04-15T12:17:02;4.65;;;2.63;;
52948;SDS011;38812;50.942;3.644;2023-04-15T12:19:35;4.50;;;1.90;;
52948;SDS011;38812;50.942;3.644;2023-04-15T12:22:03;12.52;;;7.45;;
52948;SDS011;38812;50.942;3.644;2023-04-15T12:24:33;4.35;;;2.60;;
52948;SDS011;38812;50.942;3.644;2023-04-15T12:27:03;6.15;;;2.75;;
52948;SDS011;38812;50.942;3.644;2023-04-15T12:29:33;4.22;;;2.33;;
52948;SDS011;38812;50.942;3.644;2023-04-15T12:32:06;4.03;;;2.50;;
52948;SDS011;38812;50.942;3.644;2023-04-15T12:36:59;3.95;;;2.45;;
52948;SDS011;38812;50.942;3.644;2023-04-15T12:39:27;3.75;;;2.85;;
52948;SDS011;38812;50.942;3.644;2023-04-15T12:41:54;7.40;;;4.63;;
52948;SDS011;38812;50.942;3.644;2023-04-15T12:44:21;8.25;;;4.07;;
52948;SDS011;38812;50.942;3.644;2023-04-15T12:46:47;8.50;;;4.97;;
52948;SDS011;38812;50.942;3.644;2023-04-15T12:49:13;8.50;;;5.03;;
52948;SDS011;38812;50.942;3.644;2023-04-15T12:51:40;7.43;;;4.88;;
52948;SDS011;38812;50.942;3.644;2023-04-15T12:54:05;9.57;;;4.40;;
52948;SDS011;38812;50.942;3.644;2023-04-15T12:56:31;7.97;;;4.43;;
52948;SDS011;38812;50.942;3.644;2023-04-15T12:58:56;7.47;;;4.95;;
52948;SDS011;38812;50.942;3.644;2023-04-15T13:01:22;10.18;;;5.03;;
52948;SDS011;38812;50.942;3.644;2023-04-15T13:03:47;9.55;;;5.22;;
52948;SDS011;38812;50.942;3.644;2023-04-15T13:06:14;5.72;;;4.05;;
52948;SDS011;38812;50.942;3.644;2023-04-15T13:08:40;6.80;;;4.13;;
52948;SDS011;38812;50.942;3.644;2023-04-15T13:11:06;6.15;;;3.63;;
52948;SDS011;38812;50.942;3.644;2023-04-15T13:13:31;6.38;;;3.35;;
52948;SDS011;38812;50.942;3.644;2023-04-15T13:15:57;5.60;;;3.75;;
52948;SDS011;38812;50.942;3.644;2023-04-15T13:18:23;5.85;;;3.60;;
52948;SDS011;38812;50.942;3.644;2023-04-15T13:20:48;7.00;;;4.25;;
52948;SDS011;38812;50.942;3.644;2023-04-15T13:23:14;5.57;;;3.83;;
52948;SDS011;38812;50.942;3.644;2023-04-15T13:25:40;3.53;;;2.50;;
52948;SDS011;38812;50.942;3.644;2023-04-15T13:28:06;6.47;;;3.00;;
52948;SDS011;38812;50.942;3.644;2023-04-15T13:30:31;16.70;;;7.28;;
52948;SDS011;38812;50.942;3.644;2023-04-15T13:32:57;7.05;;;3.22;;
52948;SDS011;38812;50.942;3.644;2023-04-15T13:35:22;5.90;;;3.80;;
52948;SDS011;38812;50.942;3.644;2023-04-15T13:37:48;15.10;;;5.43;;
52948;SDS011;38812;50.942;3.644;2023-04-15T13:40:13;6.25;;;3.38;;
52948;SDS011;38812;50.942;3.644;2023-04-15T13:42:39;11.70;;;3.90;;
52948;SDS011;38812;50.942;3.644;2023-04-15T13:45:05;11.57;;;5.18;;
52948;SDS011;38812;50.942;3.644;2023-04-15T13:47:31;17.75;;;9.68;;
52948;SDS011;38812;50.942;3.644;2023-04-15T13:49:56;7.45;;;4.15;;
52948;SDS011;38812;50.942;3.644;2023-04-15T13:52:22;6.88;;;4.22;;
52948;SDS011;38812;50.942;3.644;2023-04-15T13:54:47;6.97;;;3.75;;
52948;SDS011;38812;50.942;3.644;2023-04-15T13:57:13;8.80;;;3.33;;
52948;SDS011;38812;50.942;3.644;2023-04-15T13:59:38;6.43;;;3.17;;
52948;SDS011;38812;50.942;3.644;2023-04-15T14:02:04;6.47;;;2.85;;
52948;SDS011;38812;50.942;3.644;2023-04-15T14:04:30;6.10;;;3.00;;
52948;SDS011;38812;50.942;3.644;2023-04-15T14:06:56;7.22;;;4.22;;
52948;SDS011;38812;50.942;3.644;2023-04-15T14:09:21;7.43;;;5.05;;
52948;SDS011;38812;50.942;3.644;2023-04-15T14:11:48;9.23;;;5.47;;
52948;SDS011;38812;50.942;3.644;2023-04-15T14:14:14;6.47;;;5.55;;
52948;SDS011;38812;50.942;3.644;2023-04-15T14:16:39;13.32;;;5.60;;
52948;SDS011;38812;50.942;3.644;2023-04-15T14:19:05;7.03;;;5.13;;
52948;SDS011;38812;50.942;3.644;2023-04-15T14:21:30;9.35;;;5.38;;
52948;SDS011;38812;50.942;3.644;2023-04-15T14:23:56;10.75;;;4.30;;
52948;SDS011;38812;50.942;3.644;2023-04-15T14:26:22;9.25;;;3.83;;
52948;SDS011;38812;50.942;3.644;2023-04-15T14:28:48;9.75;;;4.13;;
52948;SDS011;38812;50.942;3.644;2023-04-15T14:31:13;6.05;;;3.67;;
52948;SDS011;38812;50.942;3.644;2023-04-15T14:33:39;10.10;;;4.65;;
52948;SDS011;38812;50.942;3.644;2023-04-15T14:36:05;9.82;;;5.28;;
52948;SDS011;38812;50.942;3.644;2023-04-15T14:38:33;6.95;;;4.18;;
52948;SDS011;38812;50.942;3.644;2023-04-15T14:41:02;8.93;;;4.95;;
52948;SDS011;38812;50.942;3.644;2023-04-15T14:43:28;12.73;;;7.47;;
52948;SDS011;38812;50.942;3.644;2023-04-15T14:45:54;9.50;;;5.20;;